Time;durP1;ratioP1;P1;durP2;ratioP2;P2;SDS_P1;SDS_P2;PMS_P1;PMS_P2;Temp;Humidity;BMP_temperature;BMP_pressure;BME280_temperature;BME280_humidity;BME280_pressure;Samples;Min_cycle;Max_cycle;Signal;HPM_P1;HPM_P2
2022/11/22 00:00:50;;;;;;;;;;;4.00;99.90;;;;;;5091144;27;19924;-67
2022/11/22 00:03:16;;;;;;;;;;;4.00;99.90;;;;;;5096213;27;20393;-67
2022/11/22 00:05:41;;;;;;;;;;;4.00;99.90;;;;;;5097596;27;20282;-66
2022/11/22 00:08:07;;;;;;;;;;;3.90;99.90;;;;;;5100743;27;19930;-68
2022/11/22 00:10:32;;;;;;;;;;;3.90;99.90;;;;;;5093866;27;19920;-68
2022/11/22 00:12:58;;;;;;;;;;;3.90;99.90;;;;;;5099214;27;19931;-67
2022/11/22 00:15:23;;;;;;;;;;;4.10;99.90;;;;;;5133860;27;19926;-67
2022/11/22 00:17:49;;;;;;;;;;;4.10;99.90;;;;;;5097977;27;20289;-67
2022/11/22 00:20:14;;;;;;;;;;;4.00;99.90;;;;;;5099633;28;19990;-67
2022/11/22 00:22:40;;;;;;;;;;;4.10;99.90;;;;;;5099202;27;20405;-67
2022/11/22 00:25:06;;;;;;;;;;;4.10;99.90;;;;;;5099515;27;19924;-67
2022/11/22 00:27:32;;;;;;;;;;;4.10;99.90;;;;;;5099451;27;19920;-68
2022/11/22 00:29:57;;;;;;;;;;;4.00;99.90;;;;;;5110413;27;19924;-68
2022/11/22 00:32:22;;;;;;;;;;;4.10;99.90;;;;;;5099901;27;20007;-67
2022/11/22 00:34:48;;;;;;;;;;;4.10;99.90;;;;;;5099086;28;19928;-67
2022/11/22 00:37:13;;;;;;;;;;;4.10;99.90;;;;;;5086068;28;20014;-67
2022/11/22 00:39:39;;;;;;;;;;;4.10;99.90;;;;;;5130417;27;19924;-67
2022/11/22 00:42:04;;;;;;;;;;;4.10;99.90;;;;;;5081317;28;19931;-68
2022/11/22 00:44:30;;;;;;;;;;;4.00;99.90;;;;;;5089257;28;19928;-69
2022/11/22 00:46:56;;;;;;;;;;;4.10;99.90;;;;;;5104743;27;20312;-68
2022/11/22 00:49:21;;;;;;;;;;;4.20;99.90;;;;;;5097972;27;19928;-69
2022/11/22 00:51:47;;;;;;;;;;;4.00;99.90;;;;;;5099504;27;19931;-68
2022/11/22 00:54:12;;;;;;;;;;;4.00;99.90;;;;;;5102745;27;19931;-68
2022/11/22 00:56:37;;;;;;;;;;;4.10;99.90;;;;;;5097654;28;20387;-68
2022/11/22 00:59:03;;;;;;;;;;;4.00;99.90;;;;;;5099090;27;19920;-67
2022/11/22 01:01:28;;;;;;;;;;;4.00;99.90;;;;;;5093683;27;19927;-69
2022/11/22 01:03:54;;;;;;;;;;;4.10;99.90;;;;;;5096754;27;19955;-68
2022/11/22 01:06:19;;;;;;;;;;;4.10;99.90;;;;;;5075586;27;19927;-68
2022/11/22 01:08:45;;;;;;;;;;;4.10;99.90;;;;;;5097978;27;19924;-69
2022/11/22 01:11:11;;;;;;;;;;;4.10;99.90;;;;;;5102649;27;19919;-69
2022/11/22 01:13:36;;;;;;;;;;;4.10;99.90;;;;;;5100650;27;20018;-69
2022/11/22 01:16:06;;;;;;;;;;;4.20;99.90;;;;;;5091937;27;19920;-68
2022/11/22 01:18:31;;;;;;;;;;;4.10;99.90;;;;;;5098628;27;19924;-69
2022/11/22 01:20:57;;;;;;;;;;;4.10;99.90;;;;;;5096895;27;20302;-70
2022/11/22 01:23:22;;;;;;;;;;;4.10;99.90;;;;;;5102819;27;19927;-69
2022/11/22 01:25:48;;;;;;;;;;;4.10;99.90;;;;;;5098503;27;20477;-68
2022/11/22 01:28:13;;;;;;;;;;;4.10;99.90;;;;;;5100608;27;19998;-68
2022/11/22 01:30:40;;;;;;;;;;;4.10;99.90;;;;;;5080986;28;19928;-68
2022/11/22 01:33:05;;;;;;;;;;;4.20;99.90;;;;;;5096360;27;19920;-69
2022/11/22 01:35:31;;;;;;;;;;;4.20;99.90;;;;;;5103074;27;19965;-69
2022/11/22 01:37:56;;;;;;;;;;;4.20;99.90;;;;;;5080140;28;19920;-69
2022/11/22 01:40:22;;;;;;;;;;;4.20;99.90;;;;;;5095079;28;20325;-67
2022/11/22 01:42:47;;;;;;;;;;;4.10;99.90;;;;;;5099344;27;19926;-68
2022/11/22 01:45:28;;;;;;;;;;;4.10;99.90;;;;;;5100935;28;19974;-69
2022/11/22 01:48:02;;;;;;;;;;;4.20;99.90;;;;;;5103179;27;20232;-69
2022/11/22 01:50:28;;;;;;;;;;;4.20;99.90;;;;;;5128091;27;19919;-68
2022/11/22 01:52:57;;;;;;;;;;;4.20;99.90;;;;;;5129631;27;20267;-69
2022/11/22 01:55:22;;;;;;;;;;;4.20;99.90;;;;;;5098845;27;20317;-69
2022/11/22 01:57:48;;;;;;;;;;;4.20;99.90;;;;;;5095498;28;19928;-68
2022/11/22 02:00:15;;;;;;;;;;;4.20;99.90;;;;;;5097388;28;20009;-69
2022/11/22 02:02:43;;;;;;;;;;;4.20;99.90;;;;;;5103574;27;19920;-69
2022/11/22 02:05:10;;;;;;;;;;;4.20;99.90;;;;;;5097250;28;20344;-70
2022/11/22 02:07:44;;;;;;;;;;;4.20;99.90;;;;;;5101504;27;20060;-70
2022/11/22 02:10:10;;;;;;;;;;;4.20;99.90;;;;;;5076502;28;19982;-71
2022/11/22 02:12:35;;;;;;;;;;;4.30;99.90;;;;;;5116802;27;19920;-69
2022/11/22 02:15:02;;;;;;;;;;;4.40;99.90;;;;;;5082300;28;20418;-69
2022/11/22 02:17:27;;;;;;;;;;;4.30;99.90;;;;;;5115635;27;19935;-69
2022/11/22 02:19:53;;;;;;;;;;;4.30;99.90;;;;;;5079762;28;19942;-70
2022/11/22 02:22:40;;;;;;;;;;;4.30;99.90;;;;;;5080551;28;19927;-69
2022/11/22 02:25:20;;;;;;;;;;;4.30;99.90;;;;;;5085716;28;19962;-69
2022/11/22 02:27:46;;;;;;;;;;;4.30;99.90;;;;;;5082591;28;19920;-69
2022/11/22 02:30:11;;;;;;;;;;;4.40;99.90;;;;;;5085294;28;20306;-68
2022/11/22 02:32:37;;;;;;;;;;;4.40;99.90;;;;;;5082411;28;19955;-68
2022/11/22 02:35:14;;;;;;;;;;;4.50;99.90;;;;;;5110945;28;19934;-67
2022/11/22 02:37:39;;;;;;;;;;;4.40;99.90;;;;;;5083601;28;19984;-68
2022/11/22 02:40:07;;;;;;;;;;;4.40;99.90;;;;;;5084742;28;19924;-68
2022/11/22 02:42:34;;;;;;;;;;;4.40;99.90;;;;;;5083458;28;20057;-67
2022/11/22 02:44:59;;;;;;;;;;;4.40;99.90;;;;;;5089108;28;20344;-67
2022/11/22 02:47:25;;;;;;;;;;;4.40;99.90;;;;;;5087218;28;19931;-68
2022/11/22 02:49:53;;;;;;;;;;;4.40;99.90;;;;;;5104028;28;20689;-68
2022/11/22 02:52:18;;;;;;;;;;;4.50;99.90;;;;;;5110001;27;19964;-67
2022/11/22 02:54:44;;;;;;;;;;;4.60;99.90;;;;;;5119314;27;19967;-67
2022/11/22 02:57:10;;;;;;;;;;;4.60;99.90;;;;;;5086609;28;20260;-67
2022/11/22 02:59:35;;;;;;;;;;;4.60;99.90;;;;;;5121375;27;19971;-67
2022/11/22 03:02:00;;;;;;;;;;;4.60;99.90;;;;;;5085854;28;19953;-67
2022/11/22 03:04:26;;;;;;;;;;;4.50;99.90;;;;;;5075434;27;19931;-67
2022/11/22 03:06:56;;;;;;;;;;;4.60;99.90;;;;;;5085542;27;19924;-67
2022/11/22 03:09:22;;;;;;;;;;;4.50;99.90;;;;;;5085322;28;19968;-67
2022/11/22 03:11:48;;;;;;;;;;;4.60;99.90;;;;;;5098184;27;19920;-66
2022/11/22 03:14:14;;;;;;;;;;;4.60;99.90;;;;;;5104884;27;20355;-68
2022/11/22 03:16:40;;;;;;;;;;;4.70;99.90;;;;;;5102300;27;19927;-67
2022/11/22 03:19:05;;;;;;;;;;;4.60;99.90;;;;;;5109717;27;19927;-67
2022/11/22 03:21:31;;;;;;;;;;;4.60;99.90;;;;;;5102683;27;20297;-67
2022/11/22 03:23:57;;;;;;;;;;;4.80;99.90;;;;;;5105579;27;19931;-67
2022/11/22 03:26:22;;;;;;;;;;;4.70;99.90;;;;;;5098822;27;20320;-67
2022/11/22 03:28:48;;;;;;;;;;;4.70;99.90;;;;;;5104945;27;20007;-67
2022/11/22 03:31:13;;;;;;;;;;;4.70;99.90;;;;;;5103798;27;19927;-67
2022/11/22 03:33:39;;;;;;;;;;;4.80;99.90;;;;;;5104288;27;20014;-67
2022/11/22 03:36:04;;;;;;;;;;;4.80;99.90;;;;;;5133905;27;20355;-67
2022/11/22 03:38:30;;;;;;;;;;;4.80;99.90;;;;;;5104849;27;19920;-67
2022/11/22 03:40:55;;;;;;;;;;;4.80;99.90;;;;;;5132495;27;20006;-67
2022/11/22 03:43:21;;;;;;;;;;;4.70;99.90;;;;;;5132845;27;19920;-67
2022/11/22 03:45:46;;;;;;;;;;;4.80;99.90;;;;;;5103833;27;19931;-67
2022/11/22 03:48:12;;;;;;;;;;;4.90;99.90;;;;;;5106401;27;19955;-67
2022/11/22 03:50:38;;;;;;;;;;;4.80;99.90;;;;;;5100504;27;20019;-67
2022/11/22 03:53:03;;;;;;;;;;;4.80;99.90;;;;;;5105535;27;20009;-67
2022/11/22 03:55:29;;;;;;;;;;;4.80;99.90;;;;;;5130205;27;19920;-67
2022/11/22 03:57:54;;;;;;;;;;;4.80;99.90;;;;;;5104742;27;19920;-68
2022/11/22 04:00:20;;;;;;;;;;;4.90;99.90;;;;;;5108081;27;19931;-67
2022/11/22 04:02:45;;;;;;;;;;;4.90;99.90;;;;;;5093967;27;20107;-67
2022/11/22 04:05:11;;;;;;;;;;;4.90;99.90;;;;;;5099427;27;19924;-67
2022/11/22 04:07:36;;;;;;;;;;;4.90;99.90;;;;;;5100721;27;19974;-67
2022/11/22 04:10:03;;;;;;;;;;;4.90;99.90;;;;;;5088791;28;19977;-67
2022/11/22 04:12:30;;;;;;;;;;;4.90;99.90;;;;;;5099703;27;21276;-67
2022/11/22 04:15:08;;;;;;;;;;;5.00;99.90;;;;;;5082131;27;20317;-67
2022/11/22 04:17:43;;;;;;;;;;;5.00;99.90;;;;;;5088049;28;19920;-67
2022/11/22 04:22:56;;;;;;;;;;;5.00;99.90;;;;;;5084792;28;20052;-67
2022/11/22 04:25:21;;;;;;;;;;;5.10;99.90;;;;;;5085708;28;20350;-67
2022/11/22 04:27:47;;;;;;;;;;;5.10;99.90;;;;;;5112460;27;20028;-67
2022/11/22 04:30:12;;;;;;;;;;;5.00;99.90;;;;;;5084367;28;20046;-67
2022/11/22 04:32:47;;;;;;;;;;;5.10;99.90;;;;;;5087525;28;19931;-67
2022/11/22 04:35:13;;;;;;;;;;;5.10;99.90;;;;;;5115461;27;19930;-67
2022/11/22 04:37:39;;;;;;;;;;;5.10;99.90;;;;;;5080618;28;19928;-67
2022/11/22 04:40:05;;;;;;;;;;;5.10;99.90;;;;;;5082574;27;19927;-67
2022/11/22 04:45:15;;;;;;;;;;;5.20;99.90;;;;;;5084951;28;19920;-67
2022/11/22 04:47:59;;;;;;;;;;;5.10;99.90;;;;;;5085956;27;19965;-67
2022/11/22 04:53:09;;;;;;;;;;;5.20;99.90;;;;;;5113359;27;19934;-67
2022/11/22 04:55:34;;;;;;;;;;;5.20;99.90;;;;;;5091469;28;19920;-67
2022/11/22 04:58:00;;;;;;;;;;;5.20;99.90;;;;;;5111185;27;19924;-67
2022/11/22 05:00:29;;;;;;;;;;;5.30;99.90;;;;;;5085385;27;19932;-67
2022/11/22 05:02:55;;;;;;;;;;;5.20;99.90;;;;;;5113015;27;19920;-67
2022/11/22 05:05:20;;;;;;;;;;;5.30;99.90;;;;;;5084669;28;19924;-67
2022/11/22 05:07:46;;;;;;;;;;;5.30;99.90;;;;;;5069881;27;20012;-67
2022/11/22 05:10:11;;;;;;;;;;;5.30;99.90;;;;;;5082904;28;20031;-68
2022/11/22 05:12:37;;;;;;;;;;;5.30;99.90;;;;;;5085055;28;19927;-67
2022/11/22 05:15:02;;;;;;;;;;;5.20;99.90;;;;;;5068440;28;20299;-67
2022/11/22 05:17:28;;;;;;;;;;;5.30;99.90;;;;;;5114903;27;19928;-68
2022/11/22 05:19:53;;;;;;;;;;;5.20;99.90;;;;;;5086008;28;20015;-67
2022/11/22 05:23:52;;;;;;;;;;;5.10;99.90;;;;;;5112604;27;19928;-68
2022/11/22 05:25:04;;;;;;;;;;;5.20;99.90;;;;;;5084159;28;19919;-68
2022/11/22 05:27:30;;;;;;;;;;;5.10;99.90;;;;;;5079961;28;20115;-67
2022/11/22 05:29:55;;;;;;;;;;;5.10;99.90;;;;;;5089155;27;19920;-67
2022/11/22 05:32:20;;;;;;;;;;;5.00;99.90;;;;;;5089995;28;19972;-67
2022/11/22 05:34:46;;;;;;;;;;;4.90;99.90;;;;;;5082482;28;19924;-67
2022/11/22 05:37:11;;;;;;;;;;;5.00;99.90;;;;;;5076758;27;19931;-67
2022/11/22 05:39:37;;;;;;;;;;;4.90;99.90;;;;;;5082961;28;20363;-67
2022/11/22 05:42:04;;;;;;;;;;;4.80;99.90;;;;;;5079929;28;21282;-67
2022/11/22 05:44:30;;;;;;;;;;;4.80;99.90;;;;;;5080574;28;19920;-67
2022/11/22 05:46:55;;;;;;;;;;;4.80;99.90;;;;;;5110091;27;20275;-67
2022/11/22 05:49:21;;;;;;;;;;;4.80;99.90;;;;;;5082917;28;19946;-67
2022/11/22 05:51:46;;;;;;;;;;;4.80;99.90;;;;;;5077173;28;20039;-67
2022/11/22 05:54:12;;;;;;;;;;;4.80;99.90;;;;;;5080000;28;19924;-67
2022/11/22 05:56:37;;;;;;;;;;;4.70;99.90;;;;;;5095341;28;19923;-67
2022/11/22 05:59:03;;;;;;;;;;;4.70;99.90;;;;;;5086282;28;19964;-68
2022/11/22 06:01:28;;;;;;;;;;;4.60;99.90;;;;;;5086162;28;19932;-67
2022/11/22 06:03:54;;;;;;;;;;;4.60;99.90;;;;;;5084645;28;20362;-67
2022/11/22 06:06:19;;;;;;;;;;;4.50;99.90;;;;;;5086459;28;20476;-67
2022/11/22 06:08:46;;;;;;;;;;;4.40;99.90;;;;;;5104193;27;19920;-67
2022/11/22 06:11:14;;;;;;;;;;;4.30;99.90;;;;;;5099115;27;19920;-67
2022/11/22 06:13:42;;;;;;;;;;;4.30;99.90;;;;;;5097237;27;19952;-66
2022/11/22 06:16:08;;;;;;;;;;;4.20;99.90;;;;;;5129614;27;19973;-67
2022/11/22 06:18:34;;;;;;;;;;;4.20;99.90;;;;;;5096247;28;19924;-67
2022/11/22 06:21:00;;;;;;;;;;;4.10;99.90;;;;;;5101457;28;19923;-67
2022/11/22 06:23:26;;;;;;;;;;;4.10;99.90;;;;;;5095638;28;19965;-67
2022/11/22 06:26:03;;;;;;;;;;;4.10;99.90;;;;;;5097746;28;19924;-67
2022/11/22 06:28:29;;;;;;;;;;;4.10;99.90;;;;;;5095111;28;20433;-67
2022/11/22 06:31:11;;;;;;;;;;;4.00;99.90;;;;;;5100799;28;20018;-66
2022/11/22 06:33:37;;;;;;;;;;;4.00;99.90;;;;;;5097275;28;19924;-67
2022/11/22 06:36:04;;;;;;;;;;;4.00;99.90;;;;;;5101004;28;19931;-67
2022/11/22 06:38:29;;;;;;;;;;;4.00;99.90;;;;;;5098251;28;20026;-67
2022/11/22 06:41:02;;;;;;;;;;;3.90;99.90;;;;;;5129939;27;20006;-67
2022/11/22 06:43:28;;;;;;;;;;;3.90;99.90;;;;;;5102652;28;19926;-67
2022/11/22 06:45:54;;;;;;;;;;;3.90;99.90;;;;;;5105541;28;19923;-66
2022/11/22 06:48:20;;;;;;;;;;;3.70;99.90;;;;;;5100394;28;19960;-66
2022/11/22 06:50:45;;;;;;;;;;;3.80;99.90;;;;;;5103536;28;19967;-67
2022/11/22 06:53:10;;;;;;;;;;;3.80;99.90;;;;;;5088489;28;19920;-67
2022/11/22 06:55:36;;;;;;;;;;;3.90;99.90;;;;;;5100799;28;19924;-66
2022/11/22 06:58:01;;;;;;;;;;;3.80;99.90;;;;;;5097827;28;19920;-67
2022/11/22 07:00:27;;;;;;;;;;;3.80;99.90;;;;;;5097771;28;19931;-66
2022/11/22 07:02:52;;;;;;;;;;;3.90;99.90;;;;;;5103486;28;19976;-66
2022/11/22 07:05:18;;;;;;;;;;;3.80;99.90;;;;;;5100561;28;19927;-67
2022/11/22 07:07:43;;;;;;;;;;;3.70;99.90;;;;;;5099191;28;20325;-67
2022/11/22 07:10:09;;;;;;;;;;;3.70;99.90;;;;;;5081790;28;20018;-67
2022/11/22 07:12:34;;;;;;;;;;;3.80;99.90;;;;;;5086451;28;19920;-67
2022/11/22 07:14:59;;;;;;;;;;;3.70;99.90;;;;;;5089688;28;19927;-66
2022/11/22 07:17:25;;;;;;;;;;;3.80;99.90;;;;;;5086755;28;19965;-67
2022/11/22 07:19:50;;;;;;;;;;;3.80;99.90;;;;;;5086004;28;20010;-67
2022/11/22 07:22:16;;;;;;;;;;;3.70;99.90;;;;;;5072757;28;19924;-67
2022/11/22 07:24:41;;;;;;;;;;;3.70;99.90;;;;;;5079807;28;19956;-67
2022/11/22 07:27:07;;;;;;;;;;;3.80;99.90;;;;;;5081937;28;20274;-69
2022/11/22 07:29:32;;;;;;;;;;;3.70;99.90;;;;;;5088435;28;19920;-68
2022/11/22 07:31:58;;;;;;;;;;;3.80;99.90;;;;;;5084969;28;20026;-67
2022/11/22 07:34:23;;;;;;;;;;;3.70;99.90;;;;;;5085132;28;19920;-67
2022/11/22 07:36:48;;;;;;;;;;;3.70;99.90;;;;;;5083240;28;20409;-68
2022/11/22 07:39:14;;;;;;;;;;;3.70;99.90;;;;;;5089742;28;20053;-67
2022/11/22 07:41:39;;;;;;;;;;;3.70;99.90;;;;;;5087400;28;19936;-67
2022/11/22 07:44:05;;;;;;;;;;;3.70;99.90;;;;;;5098557;27;19923;-67
2022/11/22 07:46:31;;;;;;;;;;;3.70;99.90;;;;;;5076112;27;20277;-67
2022/11/22 07:48:58;;;;;;;;;;;3.70;99.90;;;;;;5087675;28;19924;-67
2022/11/22 07:51:23;;;;;;;;;;;3.60;99.90;;;;;;5088217;28;20014;-68
2022/11/22 07:53:49;;;;;;;;;;;3.70;99.90;;;;;;5081926;28;20066;-67
2022/11/22 07:56:15;;;;;;;;;;;3.80;99.90;;;;;;5082657;28;20344;-67
2022/11/22 07:58:40;;;;;;;;;;;3.90;99.90;;;;;;5077017;28;19951;-68
2022/11/22 08:01:10;;;;;;;;;;;3.80;99.90;;;;;;5076292;28;19924;-67
2022/11/22 08:03:36;;;;;;;;;;;3.90;99.90;;;;;;5085280;28;19920;-68
2022/11/22 08:06:02;;;;;;;;;;;4.00;99.90;;;;;;5114634;27;19980;-67
2022/11/22 08:08:28;;;;;;;;;;;4.00;99.90;;;;;;5084351;27;19920;-68
2022/11/22 08:10:54;;;;;;;;;;;4.30;99.90;;;;;;5098544;28;19919;-67
2022/11/22 08:13:19;;;;;;;;;;;4.40;99.90;;;;;;5094847;28;19952;-68
2022/11/22 08:15:47;;;;;;;;;;;4.40;99.90;;;;;;5102477;27;19928;-69
2022/11/22 08:18:12;;;;;;;;;;;4.40;99.90;;;;;;5106394;27;19923;-68
2022/11/22 08:20:38;;;;;;;;;;;4.40;99.90;;;;;;5111260;28;20289;-68
2022/11/22 08:23:03;;;;;;;;;;;4.30;99.90;;;;;;5106226;28;20219;-68
2022/11/22 08:25:28;;;;;;;;;;;4.30;99.90;;;;;;5111125;27;19924;-66
2022/11/22 08:27:54;;;;;;;;;;;4.30;99.90;;;;;;5105312;27;20122;-67
2022/11/22 08:30:20;;;;;;;;;;;4.30;99.90;;;;;;5081247;28;19931;-67
2022/11/22 08:32:45;;;;;;;;;;;4.30;99.90;;;;;;5098397;28;19920;-67
2022/11/22 08:35:11;;;;;;;;;;;4.30;99.90;;;;;;5143330;27;19924;-68
2022/11/22 08:37:36;;;;;;;;;;;4.30;99.90;;;;;;5097591;28;19920;-66
2022/11/22 08:40:02;;;;;;;;;;;4.40;99.90;;;;;;5104790;27;19928;-68
2022/11/22 08:42:27;;;;;;;;;;;4.60;99.90;;;;;;5097844;28;19974;-68
2022/11/22 08:44:53;;;;;;;;;;;4.60;99.90;;;;;;5099669;28;19919;-67
2022/11/22 08:47:18;;;;;;;;;;;4.70;99.90;;;;;;5100531;27;19931;-67
2022/11/22 08:49:44;;;;;;;;;;;4.80;99.90;;;;;;5099238;28;19919;-69
2022/11/22 08:52:09;;;;;;;;;;;4.90;99.90;;;;;;5102515;28;19969;-68
2022/11/22 08:54:35;;;;;;;;;;;4.90;99.90;;;;;;5104782;28;20328;-66
2022/11/22 08:57:00;;;;;;;;;;;5.10;99.90;;;;;;5099673;28;20015;-68
2022/11/22 08:59:26;;;;;;;;;;;5.00;99.90;;;;;;5104865;28;19924;-68
2022/11/22 09:01:52;;;;;;;;;;;5.10;99.90;;;;;;5081561;28;19978;-68
2022/11/22 09:04:17;;;;;;;;;;;5.10;99.90;;;;;;5107781;28;20267;-68
2022/11/22 09:06:43;;;;;;;;;;;5.20;99.90;;;;;;5107319;27;19931;-67
2022/11/22 09:09:08;;;;;;;;;;;5.20;99.90;;;;;;5093151;27;19928;-68
2022/11/22 09:11:34;;;;;;;;;;;5.20;99.90;;;;;;5095862;27;20562;-69
2022/11/22 09:14:00;;;;;;;;;;;5.30;99.90;;;;;;5107632;27;19919;-68
2022/11/22 09:16:27;;;;;;;;;;;5.30;99.90;;;;;;5099798;27;20035;-68
2022/11/22 09:18:53;;;;;;;;;;;5.30;99.90;;;;;;5099399;27;20378;-69
2022/11/22 09:21:18;;;;;;;;;;;5.40;99.90;;;;;;5096235;28;19989;-68
2022/11/22 09:23:45;;;;;;;;;;;5.50;99.90;;;;;;5098098;27;20030;-67
2022/11/22 09:26:15;;;;;;;;;;;5.40;99.90;;;;;;5111376;27;19919;-68
2022/11/22 09:28:40;;;;;;;;;;;5.50;99.90;;;;;;5104293;27;19924;-67
2022/11/22 09:31:07;;;;;;;;;;;5.60;99.90;;;;;;5102877;27;19997;-68
2022/11/22 09:33:34;;;;;;;;;;;5.70;99.90;;;;;;5096298;28;19941;-68
2022/11/22 09:35:59;;;;;;;;;;;5.60;99.90;;;;;;5102354;28;19958;-68
2022/11/22 09:38:25;;;;;;;;;;;5.80;99.90;;;;;;5100121;27;20315;-69
2022/11/22 09:40:51;;;;;;;;;;;5.80;99.90;;;;;;5103228;27;19976;-69
2022/11/22 09:43:22;;;;;;;;;;;5.90;99.90;;;;;;5101087;27;19923;-69
2022/11/22 09:45:51;;;;;;;;;;;6.00;99.90;;;;;;5108860;28;19928;-68
2022/11/22 09:48:16;;;;;;;;;;;6.00;99.90;;;;;;5093313;27;20362;-67
2022/11/22 09:51:00;;;;;;;;;;;6.10;99.90;;;;;;5103738;27;19924;-68
2022/11/22 09:53:31;;;;;;;;;;;6.10;99.90;;;;;;5127817;27;19924;-69
2022/11/22 09:55:58;;;;;;;;;;;6.20;99.90;;;;;;5092467;28;20363;-68
2022/11/22 09:58:29;;;;;;;;;;;6.20;99.90;;;;;;5094867;28;19927;-68
2022/11/22 10:00:57;;;;;;;;;;;6.30;99.90;;;;;;5093572;28;19958;-68
2022/11/22 10:03:29;;;;;;;;;;;6.40;99.90;;;;;;5126867;27;19931;-69
2022/11/22 10:05:57;;;;;;;;;;;6.40;99.90;;;;;;5119564;27;19980;-68
2022/11/22 10:08:41;;;;;;;;;;;6.40;99.90;;;;;;5101670;27;19927;-68
2022/11/22 10:11:34;;;;;;;;;;;6.30;99.90;;;;;;5118206;27;19920;-68
2022/11/22 10:14:02;;;;;;;;;;;6.40;99.90;;;;;;5095590;28;19931;-68
2022/11/22 10:16:27;;;;;;;;;;;6.60;99.90;;;;;;5096835;28;19973;-68
2022/11/22 10:18:55;;;;;;;;;;;6.60;99.90;;;;;;5096304;28;20378;-67
2022/11/22 10:21:20;;;;;;;;;;;6.70;99.90;;;;;;5094382;28;20166;-68
2022/11/22 10:23:46;;;;;;;;;;;6.80;99.90;;;;;;5100756;28;20018;-69
2022/11/22 10:26:20;;;;;;;;;;;6.80;99.90;;;;;;5093451;28;20385;-67
2022/11/22 10:28:49;;;;;;;;;;;6.90;99.90;;;;;;5092179;28;20762;-68
2022/11/22 10:31:22;;;;;;;;;;;6.90;99.90;;;;;;5091405;28;19959;-68
2022/11/22 10:33:54;;;;;;;;;;;7.00;99.90;;;;;;5124506;27;19938;-69
2022/11/22 10:36:25;;;;;;;;;;;7.10;99.90;;;;;;5123362;27;19930;-67
2022/11/22 10:38:51;;;;;;;;;;;7.10;99.90;;;;;;5093578;28;20351;-69
2022/11/22 10:41:16;;;;;;;;;;;7.20;99.90;;;;;;5099283;28;19973;-67
2022/11/22 10:44:01;;;;;;;;;;;7.20;99.90;;;;;;5092792;28;19919;-68
2022/11/22 10:46:45;;;;;;;;;;;7.10;99.90;;;;;;5093805;28;19977;-68
2022/11/22 10:49:21;;;;;;;;;;;7.10;99.90;;;;;;5097600;28;19928;-68
2022/11/22 10:51:56;;;;;;;;;;;7.10;99.90;;;;;;5100074;28;19930;-70
2022/11/22 10:54:29;;;;;;;;;;;7.10;99.90;;;;;;5090609;28;20440;-68
2022/11/22 10:57:06;;;;;;;;;;;7.00;99.90;;;;;;5110411;28;20361;-68
2022/11/22 10:59:51;;;;;;;;;;;7.00;99.90;;;;;;5097559;28;20320;-68
2022/11/22 11:02:35;;;;;;;;;;;7.00;99.90;;;;;;5125753;28;19935;-68
2022/11/22 11:05:04;;;;;;;;;;;7.10;99.90;;;;;;5098213;28;19920;-69
2022/11/22 11:07:30;;;;;;;;;;;7.10;99.90;;;;;;5102542;28;19928;-69
2022/11/22 11:09:57;;;;;;;;;;;7.10;99.90;;;;;;5098052;28;19927;-68
2022/11/22 11:12:42;;;;;;;;;;;7.20;99.90;;;;;;5107649;27;19927;-69
2022/11/22 11:15:20;;;;;;;;;;;7.10;99.90;;;;;;5105670;28;19920;-69
2022/11/22 11:17:47;;;;;;;;;;;7.20;99.90;;;;;;5109399;27;19942;-68
2022/11/22 11:20:17;;;;;;;;;;;7.20;99.90;;;;;;5136707;27;19930;-69
2022/11/22 11:22:42;;;;;;;;;;;7.30;99.90;;;;;;5105626;27;19960;-69
2022/11/22 11:25:25;;;;;;;;;;;7.30;99.90;;;;;;5094410;28;19919;-68
2022/11/22 11:27:51;;;;;;;;;;;7.30;99.90;;;;;;5104297;27;19931;-68
2022/11/22 11:30:17;;;;;;;;;;;7.40;99.90;;;;;;5081470;28;19928;-68
2022/11/22 11:32:53;;;;;;;;;;;7.40;99.90;;;;;;5099036;27;19927;-68
2022/11/22 11:35:19;;;;;;;;;;;7.40;99.90;;;;;;5102930;27;19958;-69
2022/11/22 11:37:45;;;;;;;;;;;7.50;99.90;;;;;;5101995;27;19920;-69
2022/11/22 11:40:27;;;;;;;;;;;7.50;99.90;;;;;;5089605;28;19930;-68
2022/11/22 11:43:12;;;;;;;;;;;7.50;99.90;;;;;;5092878;27;19938;-69
2022/11/22 11:45:37;;;;;;;;;;;7.60;99.90;;;;;;5080522;28;19920;-68
2022/11/22 11:48:03;;;;;;;;;;;7.60;99.90;;;;;;5135797;27;19932;-70
2022/11/22 11:50:31;;;;;;;;;;;7.60;99.90;;;;;;5106232;27;19931;-69
2022/11/22 11:53:04;;;;;;;;;;;7.50;99.90;;;;;;5105843;28;19977;-69
2022/11/22 11:55:30;;;;;;;;;;;7.40;99.90;;;;;;5103274;27;20012;-69
2022/11/22 11:58:00;;;;;;;;;;;7.50;99.90;;;;;;5100863;28;19985;-68
2022/11/22 12:00:33;;;;;;;;;;;7.50;99.90;;;;;;5130984;27;19928;-68
2022/11/22 12:03:00;;;;;;;;;;;7.40;99.90;;;;;;5114046;27;19967;-68
2022/11/22 12:05:27;;;;;;;;;;;7.40;99.90;;;;;;5101186;28;20263;-68
2022/11/22 12:07:53;;;;;;;;;;;7.40;99.90;;;;;;5097148;27;20355;-68
2022/11/22 12:10:39;;;;;;;;;;;7.40;99.90;;;;;;5077950;28;19920;-69
2022/11/22 12:13:20;;;;;;;;;;;7.40;99.90;;;;;;5079683;28;19920;-68
2022/11/22 12:15:50;;;;;;;;;;;7.40;99.90;;;;;;5084718;28;19919;-68
2022/11/22 12:18:22;;;;;;;;;;;7.30;99.90;;;;;;5084918;28;19964;-68
2022/11/22 12:20:54;;;;;;;;;;;7.30;99.90;;;;;;5083697;28;19931;-67
2022/11/22 12:23:23;;;;;;;;;;;7.20;99.90;;;;;;5075775;28;19924;-68
2022/11/22 12:25:49;;;;;;;;;;;7.20;99.90;;;;;;5082837;28;20019;-68
2022/11/22 12:28:19;;;;;;;;;;;7.20;99.90;;;;;;5114459;27;19924;-68
2022/11/22 12:30:48;;;;;;;;;;;7.20;99.90;;;;;;5082030;28;19973;-69
2022/11/22 12:33:17;;;;;;;;;;;7.20;99.90;;;;;;5086119;28;19951;-68
2022/11/22 12:35:43;;;;;;;;;;;7.20;99.90;;;;;;5118165;27;19920;-67
2022/11/22 12:38:09;;;;;;;;;;;7.10;99.90;;;;;;5081051;28;19966;-69
2022/11/22 12:40:39;;;;;;;;;;;7.20;99.90;;;;;;5085152;28;19967;-68
2022/11/22 12:43:22;;;;;;;;;;;7.10;99.90;;;;;;5066591;28;20297;-69
2022/11/22 12:45:49;;;;;;;;;;;7.10;99.90;;;;;;5112510;27;19956;-68
2022/11/22 12:48:27;;;;;;;;;;;7.10;99.90;;;;;;5075740;28;21286;-67
2022/11/22 12:50:54;;;;;;;;;;;7.10;99.90;;;;;;5114906;27;19934;-68
2022/11/22 12:53:23;;;;;;;;;;;7.10;99.90;;;;;;5069345;28;19931;-69
2022/11/22 12:56:07;;;;;;;;;;;7.10;99.90;;;;;;5129731;27;19919;-68
2022/11/22 12:58:37;;;;;;;;;;;7.00;99.90;;;;;;5122993;27;19920;-67
2022/11/22 13:01:21;;;;;;;;;;;7.00;99.90;;;;;;5091840;27;19927;-68
2022/11/22 13:03:54;;;;;;;;;;;7.00;99.90;;;;;;5085401;28;19942;-67
2022/11/22 13:06:26;;;;;;;;;;;7.00;99.90;;;;;;5101325;28;20396;-66
2022/11/22 13:09:00;;;;;;;;;;;7.00;99.90;;;;;;5097572;28;19920;-69
2022/11/22 13:11:29;;;;;;;;;;;7.00;99.90;;;;;;5093010;28;20011;-69
2022/11/22 13:14:03;;;;;;;;;;;7.00;99.90;;;;;;5112559;28;19923;-69
2022/11/22 13:16:29;;;;;;;;;;;7.00;99.90;;;;;;5111028;28;19920;-69
2022/11/22 13:18:59;;;;;;;;;;;6.90;99.90;;;;;;5094048;28;19942;-68
2022/11/22 13:21:25;;;;;;;;;;;7.00;99.90;;;;;;5105209;28;19935;-69
2022/11/22 13:23:56;;;;;;;;;;;7.00;99.90;;;;;;5111456;28;19920;-68
2022/11/22 13:26:28;;;;;;;;;;;6.90;99.90;;;;;;5106499;28;19919;-68
2022/11/22 13:28:54;;;;;;;;;;;6.90;99.90;;;;;;5104140;28;19927;-67
2022/11/22 13:31:23;;;;;;;;;;;7.00;99.90;;;;;;5098023;28;20366;-67
2022/11/22 13:33:56;;;;;;;;;;;6.90;99.90;;;;;;5108023;27;19920;-69
2022/11/22 13:36:27;;;;;;;;;;;6.90;99.90;;;;;;5125724;27;19973;-68
2022/11/22 13:38:54;;;;;;;;;;;6.90;99.90;;;;;;5094943;27;20010;-68
2022/11/22 13:41:21;;;;;;;;;;;6.90;99.90;;;;;;5090121;28;20012;-69
2022/11/22 13:43:53;;;;;;;;;;;6.90;99.90;;;;;;5089821;28;19960;-68
2022/11/22 13:46:37;;;;;;;;;;;6.90;99.90;;;;;;5090898;28;19947;-67
2022/11/22 13:49:10;;;;;;;;;;;6.80;99.90;;;;;;5089719;28;19920;-68
2022/11/22 13:52:04;;;;;;;;;;;6.90;99.90;;;;;;5107455;28;19959;-68
2022/11/22 13:54:36;;;;;;;;;;;6.80;99.90;;;;;;5088293;28;19923;-68
2022/11/22 13:57:03;;;;;;;;;;;6.80;99.90;;;;;;5096209;28;19931;-68
2022/11/22 13:59:29;;;;;;;;;;;6.80;99.90;;;;;;5108865;28;19920;-69
2022/11/22 14:01:55;;;;;;;;;;;6.80;99.90;;;;;;5110177;28;19930;-68
2022/11/22 14:04:25;;;;;;;;;;;6.70;99.90;;;;;;5109761;28;19943;-68
2022/11/22 14:06:52;;;;;;;;;;;6.70;99.90;;;;;;5106397;28;20045;-68
2022/11/22 14:09:53;;;;;;;;;;;6.80;99.90;;;;;;5109479;28;19919;-68
2022/11/22 14:12:28;;;;;;;;;;;6.70;99.90;;;;;;5039024;28;19921;-69
2022/11/22 14:15:13;;;;;;;;;;;6.60;99.90;;;;;;5072618;28;19920;-68
2022/11/22 14:17:50;;;;;;;;;;;6.70;99.90;;;;;;5095835;28;20380;-68
2022/11/22 14:20:25;;;;;;;;;;;6.60;99.90;;;;;;5110266;28;19923;-68
2022/11/22 14:22:56;;;;;;;;;;;6.60;99.90;;;;;;5106373;28;19920;-69
2022/11/22 14:25:21;;;;;;;;;;;6.60;99.90;;;;;;5108012;28;19963;-68
2022/11/22 14:27:53;;;;;;;;;;;6.60;99.90;;;;;;5109455;28;19966;-69
2022/11/22 14:30:36;;;;;;;;;;;6.60;99.90;;;;;;5099532;28;20374;-68
2022/11/22 14:33:03;;;;;;;;;;;6.60;99.90;;;;;;5109443;28;19920;-68
2022/11/22 14:35:36;;;;;;;;;;;6.50;99.90;;;;;;5097047;28;19932;-68
2022/11/22 14:38:20;;;;;;;;;;;6.60;99.90;;;;;;5095072;28;19927;-69
2022/11/22 14:40:46;;;;;;;;;;;6.50;99.90;;;;;;5097759;28;19948;-68
2022/11/22 14:43:19;;;;;;;;;;;6.60;99.90;;;;;;5099127;28;19939;-68
2022/11/22 14:45:52;;;;;;;;;;;6.50;99.90;;;;;;5100788;28;19935;-69